»·PEaware :: ASA335 KPDX-KSEA

ASA335 :: KPDX-KSEA

FLIGHT INFORMATION

Flight Status: Arrived
Operator:
Alaska Airlines
More flights by this operator :: More flights under this callsign
Pilot: Jone M. (10385)
Aircraft: BOEING 737-800
(B738)
More flights by this aircraft type
Origin: KPDX Portland Intl
United States
Destination: KSEA Seattle-Tacoma Intl
United States
More flights between these airports :: More routes between these airports
Route: COUGA KRIEG HAWKZ7
File this flight plan on PilotEdge
Remarks: PBN / A1B1C1D1S1S2 DOF / 181218 REG / N549AS OPR / ASA PER / C RMK / TCAS SIMBRIEF
Altitude:
(Current/Filed)
20,000ft
Speed:
(Current/Filed)
355kts
Departed: 18-Dec-18 01:35 PM
Arrived: 18-Dec-18 02:12 PM
Distance/Time
Traveled:
112nm/0:36
Distance/Time
To Go:
Arrived

Flight Plot

Page will automatically refresh every two minutes.

Flight plan parsing failed; only flown route is shown


Map Options




Map Legend


Flown Route
Filed Route
Departure Airport
Arrival Airport
Navaid (VOR, NDB)
Fix

Horizontal Profiles

Position Reports

Time Latitude Longitude Heading Altitude Ground
Speed
18-Dec-18 13:09 45.588433 -122.596365 29 31ft 0kts
18-Dec-18 13:10 45.588433 -122.596365 29 31ft 0kts
18-Dec-18 13:11 45.588433 -122.596365 29 31ft 0kts
18-Dec-18 13:12 45.588433 -122.596365 29 31ft 0kts
18-Dec-18 13:13 45.588433 -122.596365 29 31ft 0kts
18-Dec-18 13:14 45.588433 -122.596365 29 31ft 0kts
18-Dec-18 13:15 45.588433 -122.596365 29 31ft 0kts
18-Dec-18 13:16 45.588433 -122.596365 29 31ft 0kts
18-Dec-18 13:17 45.588433 -122.596365 29 31ft 0kts
18-Dec-18 13:18 45.588433 -122.596365 29 31ft 0kts
18-Dec-18 13:19 45.588433 -122.596365 29 31ft 0kts
18-Dec-18 13:20 45.588433 -122.596365 29 31ft 0kts
18-Dec-18 13:21 45.588433 -122.596365 29 31ft 0kts
18-Dec-18 13:22 45.588433 -122.596365 29 31ft 0kts
18-Dec-18 13:23 45.588433 -122.596365 29 31ft 0kts
18-Dec-18 13:24 45.588432 -122.596366 29 31ft 0kts
18-Dec-18 13:25 45.588432 -122.596366 29 31ft 0kts
18-Dec-18 13:26 45.587999 -122.596816 57 31ft 2kts
18-Dec-18 13:26 45.587911 -122.597498 103 31ft 2kts
18-Dec-18 13:28 45.587992 -122.597774 119 31ft 0kts
18-Dec-18 13:29 45.587992 -122.597774 119 31ft 0kts
18-Dec-18 13:30 45.587992 -122.597774 119 31ft 0kts
18-Dec-18 13:30 45.587786 -122.597269 120 31ft 8kts
18-Dec-18 13:32 45.583585 -122.588614 119 31ft 31kts
18-Dec-18 13:32 45.582162 -122.584834 120 31ft 0kts
18-Dec-18 13:33 45.581571 -122.583694 153 31ft 9kts
18-Dec-18 13:34 45.586204 -122.598237 294 32ft 152kts
18-Dec-18 13:35 45.611122 -122.659515 296 2662ft 207kts
18-Dec-18 13:36 45.649719 -122.740087 318 6027ft 270kts
18-Dec-18 13:37 45.728126 -122.744863 357 9922ft 304kts
18-Dec-18 13:38 45.819622 -122.728250 356 12853ft 344kts
18-Dec-18 13:39 45.916448 -122.710219 355 16059ft 360kts
18-Dec-18 13:40 46.017026 -122.691438 354 18969ft 375kts
18-Dec-18 13:41 46.121824 -122.682097 339 19966ft 360kts
18-Dec-18 13:42 46.218362 -122.702016 338 19981ft 354kts
18-Dec-18 13:43 46.314036 -122.720902 338 19995ft 354kts
18-Dec-18 13:44 46.412488 -122.738992 340 20049ft 357kts
18-Dec-18 13:45 46.511692 -122.743460 346 20055ft 368kts
18-Dec-18 13:46 46.612935 -122.741803 346 20048ft 367kts
18-Dec-18 13:47 46.713276 -122.740057 347 18328ft 359kts
18-Dec-18 13:48 46.812543 -122.723015 12 16072ft 379kts
18-Dec-18 13:49 46.890198 -122.619154 40 14504ft 386kts
18-Dec-18 13:50 46.972051 -122.543995 8 12976ft 337kts
18-Dec-18 13:51 47.056409 -122.510158 10 12069ft 315kts
18-Dec-18 13:52 47.130536 -122.490584 359 11219ft 308kts
18-Dec-18 13:53 47.193601 -122.479345 1 10443ft 307kts
18-Dec-18 13:54 47.255758 -122.469794 0 9565ft 304kts
18-Dec-18 13:55 47.326535 -122.459068 0 8558ft 302kts
18-Dec-18 13:56 47.398809 -122.454820 353 7672ft 298kts
18-Dec-18 13:57 47.469476 -122.455202 355 6649ft 295kts
18-Dec-18 13:58 47.541794 -122.450208 5 5987ft 289kts
18-Dec-18 13:59 47.607185 -122.439234 359 5994ft 250kts
18-Dec-18 14:00 47.672620 -122.430958 32 4934ft 253kts
18-Dec-18 14:01 47.687179 -122.363192 95 4170ft 233kts
18-Dec-18 14:02 47.666311 -122.312853 163 3993ft 209kts
18-Dec-18 14:03 47.626815 -122.309340 180 3674ft 202kts
18-Dec-18 14:04 47.606452 -122.309781 181 3309ft 201kts
18-Dec-18 14:05 47.606452 -122.309781 181 3309ft 201kts
18-Dec-18 14:06 47.592862 -122.309959 180 3019ft 197kts
18-Dec-18 14:07 47.549700 -122.310564 180 2171ft 153kts
18-Dec-18 14:08 47.518284 -122.310428 178 1509ft 133kts
18-Dec-18 14:09 47.487699 -122.310982 179 940ft 129kts
18-Dec-18 14:10 47.461009 -122.311020 180 447ft 120kts
18-Dec-18 14:11 47.447788 -122.310268 155 441ft 30kts
18-Dec-18 14:12 47.445914 -122.308068 100 441ft 15kts
18-Dec-18 14:13 47.447779 -122.305067 92 441ft 11kts
18-Dec-18 14:14 47.448092 -122.303124 43 441ft 0kts
18-Dec-18 14:15 47.448092 -122.303124 43 441ft 0kts
18-Dec-18 14:16 47.448092 -122.303124 43 441ft 0kts

Navigation Log

Ident Type
Flight plan parsing failed, navigation log unavailable